sensor_id;sensor_type;location;lat;lon;timestamp;pressure;altitude;pressure_sealevel;temperature;humidity
42247;BME280;27913;42.722;23.268;2023-02-19T00:01:19;95244.06;;;6.93;56.94
42247;BME280;27913;42.722;23.268;2023-02-19T00:03:54;95311.03;;;7.29;57.00
42247;BME280;27913;42.722;23.268;2023-02-19T00:06:21;95318.22;;;7.18;57.38
42247;BME280;27913;42.722;23.268;2023-02-19T00:08:46;95307.06;;;7.16;57.48
42247;BME280;27913;42.722;23.268;2023-02-19T00:11:17;95209.41;;;6.47;57.62
42247;BME280;27913;42.722;23.268;2023-02-19T00:13:45;95195.91;;;6.60;57.38
42247;BME280;27913;42.722;23.268;2023-02-19T00:16:19;95293.50;;;7.12;57.93
42247;BME280;27913;42.722;23.268;2023-02-19T00:18:45;95295.78;;;7.16;57.68
42247;BME280;27913;42.722;23.268;2023-02-19T00:21:11;95239.13;;;6.81;57.55
42247;BME280;27913;42.722;23.268;2023-02-19T00:23:37;95239.91;;;6.82;57.67
42247;BME280;27913;42.722;23.268;2023-02-19T00:26:05;95204.91;;;6.66;57.48
42247;BME280;27913;42.722;23.268;2023-02-19T00:28:31;95218.47;;;6.70;57.70
42247;BME280;27913;42.722;23.268;2023-02-19T00:31:07;95213.41;;;6.68;57.72
42247;BME280;27913;42.722;23.268;2023-02-19T00:33:33;95097.41;;;5.83;57.97
42247;BME280;27913;42.722;23.268;2023-02-19T00:36:02;95278.75;;;7.03;58.27
42247;BME280;27913;42.722;23.268;2023-02-19T00:38:29;95280.84;;;6.99;58.22
42247;BME280;27913;42.722;23.268;2023-02-19T00:40:54;95206.38;;;6.60;58.37
42247;BME280;27913;42.722;23.268;2023-02-19T00:43:20;95161.34;;;6.32;58.32
42247;BME280;27913;42.722;23.268;2023-02-19T00:45:45;95194.78;;;6.63;58.01
42247;BME280;27913;42.722;23.268;2023-02-19T00:48:11;95257.34;;;7.08;58.16
42247;BME280;27913;42.722;23.268;2023-02-19T00:50:36;95247.06;;;7.15;58.17
42247;BME280;27913;42.722;23.268;2023-02-19T00:53:02;95245.91;;;7.09;58.23
42247;BME280;27913;42.722;23.268;2023-02-19T00:55:27;95145.53;;;6.42;57.78
42247;BME280;27913;42.722;23.268;2023-02-19T00:57:53;95220.19;;;6.87;58.29
42247;BME280;27913;42.722;23.268;2023-02-19T01:00:18;95202.84;;;6.43;58.57
42247;BME280;27913;42.722;23.268;2023-02-19T01:05:18;95168.44;;;6.13;59.37
42247;BME280;27913;42.722;23.268;2023-02-19T01:07:44;95248.28;;;6.50;59.46
42247;BME280;27913;42.722;23.268;2023-02-19T01:10:09;95071.94;;;5.23;60.12
42247;BME280;27913;42.722;23.268;2023-02-19T01:12:35;95217.94;;;6.04;60.70
42247;BME280;27913;42.722;23.268;2023-02-19T01:15:00;95231.25;;;6.11;60.92
42247;BME280;27913;42.722;23.268;2023-02-19T01:17:26;95246.66;;;6.23;61.29
42247;BME280;27913;42.722;23.268;2023-02-19T01:19:51;95256.34;;;6.31;61.16
42247;BME280;27913;42.722;23.268;2023-02-19T01:22:17;95248.19;;;6.34;60.93
42247;BME280;27913;42.722;23.268;2023-02-19T01:24:43;95169.47;;;5.75;61.19
42247;BME280;27913;42.722;23.268;2023-02-19T01:27:09;95208.88;;;5.90;61.56
42247;BME280;27913;42.722;23.268;2023-02-19T01:29:34;95253.47;;;6.15;62.14
42247;BME280;27913;42.722;23.268;2023-02-19T01:32:00;95207.97;;;5.55;64.04
42247;BME280;27913;42.722;23.268;2023-02-19T01:34:25;95205.59;;;5.25;65.11
42247;BME280;27913;42.722;23.268;2023-02-19T01:36:54;95064.50;;;4.37;65.33
42247;BME280;27913;42.722;23.268;2023-02-19T01:39:20;95246.94;;;5.38;66.11
42247;BME280;27913;42.722;23.268;2023-02-19T01:41:45;95206.19;;;5.19;65.67
42247;BME280;27913;42.722;23.268;2023-02-19T01:46:38;95275.38;;;5.78;64.85
42247;BME280;27913;42.722;23.268;2023-02-19T01:51:37;95165.28;;;5.19;64.02
42247;BME280;27913;42.722;23.268;2023-02-19T01:54:06;95157.75;;;5.35;63.23
42247;BME280;27913;42.722;23.268;2023-02-19T01:56:34;95205.19;;;5.75;62.97
42247;BME280;27913;42.722;23.268;2023-02-19T01:59:03;95161.81;;;5.55;62.70
42247;BME280;27913;42.722;23.268;2023-02-19T02:01:28;95161.22;;;5.62;62.63
42247;BME280;27913;42.722;23.268;2023-02-19T02:03:54;95168.06;;;5.63;62.29
42247;BME280;27913;42.722;23.268;2023-02-19T02:06:26;95243.34;;;6.12;62.50
42247;BME280;27913;42.722;23.268;2023-02-19T02:08:57;95181.47;;;5.68;62.54
42247;BME280;27913;42.722;23.268;2023-02-19T02:11:47;95286.72;;;6.32;62.57
42247;BME280;27913;42.722;23.268;2023-02-19T02:14:13;95226.66;;;5.87;62.79
42247;BME280;27913;42.722;23.268;2023-02-19T02:27:17;95288.03;;;6.09;63.74
42247;BME280;27913;42.722;23.268;2023-02-19T02:32:48;95188.25;;;5.34;63.85
42247;BME280;27913;42.722;23.268;2023-02-19T02:35:21;95297.88;;;6.15;63.60
42247;BME280;27913;42.722;23.268;2023-02-19T02:37:48;95226.34;;;5.90;61.93
42247;BME280;27913;42.722;23.268;2023-02-19T02:40:16;95167.34;;;5.52;61.99
42247;BME280;27913;42.722;23.268;2023-02-19T02:42:42;95283.94;;;6.33;61.97
42247;BME280;27913;42.722;23.268;2023-02-19T02:48:21;95305.53;;;6.35;62.49
42247;BME280;27913;42.722;23.268;2023-02-19T02:53:54;95299.31;;;6.36;62.75
42247;BME280;27913;42.722;23.268;2023-02-19T02:56:42;95184.75;;;5.70;62.67
42247;BME280;27913;42.722;23.268;2023-02-19T02:59:09;95280.47;;;6.24;62.65
42247;BME280;27913;42.722;23.268;2023-02-19T03:01:47;95254.59;;;6.13;62.56
42247;BME280;27913;42.722;23.268;2023-02-19T03:07:46;95307.41;;;6.51;61.47
42247;BME280;27913;42.722;23.268;2023-02-19T03:10:19;95160.91;;;5.65;61.07
42247;BME280;27913;42.722;23.268;2023-02-19T03:12:46;95160.91;;;5.65;60.64
42247;BME280;27913;42.722;23.268;2023-02-19T03:15:36;95213.13;;;5.91;60.92
42247;BME280;27913;42.722;23.268;2023-02-19T03:18:22;95195.94;;;5.62;61.36
42247;BME280;27913;42.722;23.268;2023-02-19T03:21:08;95165.72;;;5.33;61.67
42247;BME280;27913;42.722;23.268;2023-02-19T03:23:36;95132.41;;;4.90;62.22
42247;BME280;27913;42.722;23.268;2023-02-19T03:26:21;95255.00;;;5.63;62.71
42247;BME280;27913;42.722;23.268;2023-02-19T03:28:50;95288.31;;;5.70;63.31
42247;BME280;27913;42.722;23.268;2023-02-19T03:31:36;95277.59;;;5.54;63.81
42247;BME280;27913;42.722;23.268;2023-02-19T03:34:08;95163.09;;;4.78;63.90
42247;BME280;27913;42.722;23.268;2023-02-19T03:36:37;95328.31;;;5.88;63.62
42247;BME280;27913;42.722;23.268;2023-02-19T03:39:06;95295.09;;;5.62;63.29
42247;BME280;27913;42.722;23.268;2023-02-19T03:47:02;95215.34;;;5.23;62.83
42247;BME280;27913;42.722;23.268;2023-02-19T03:49:50;95298.19;;;5.76;62.72
42247;BME280;27913;42.722;23.268;2023-02-19T03:52:38;95350.41;;;6.12;62.46
42247;BME280;27913;42.722;23.268;2023-02-19T03:55:17;95292.13;;;5.75;62.31
42247;BME280;27913;42.722;23.268;2023-02-19T03:57:52;95281.38;;;5.78;62.17
42247;BME280;27913;42.722;23.268;2023-02-19T04:00:36;95286.38;;;5.72;62.22
42247;BME280;27913;42.722;23.268;2023-02-19T04:03:12;95321.81;;;5.92;62.29
42247;BME280;27913;42.722;23.268;2023-02-19T04:05:43;95357.09;;;6.15;62.31
42247;BME280;27913;42.722;23.268;2023-02-19T04:08:15;95356.50;;;6.21;62.10
42247;BME280;27913;42.722;23.268;2023-02-19T04:10:43;95302.72;;;5.92;62.00
42247;BME280;27913;42.722;23.268;2023-02-19T04:13:21;95340.06;;;6.29;61.76
42247;BME280;27913;42.722;23.268;2023-02-19T04:15:48;95360.28;;;6.45;61.48
42247;BME280;27913;42.722;23.268;2023-02-19T04:18:17;95288.72;;;6.11;61.44
42247;BME280;27913;42.722;23.268;2023-02-19T04:20:45;95305.91;;;6.22;61.00
42247;BME280;27913;42.722;23.268;2023-02-19T04:23:13;95375.09;;;6.63;60.90
42247;BME280;27913;42.722;23.268;2023-02-19T04:25:45;95243.31;;;5.94;61.07
42247;BME280;27913;42.722;23.268;2023-02-19T04:28:12;95298.78;;;6.33;61.22
42247;BME280;27913;42.722;23.268;2023-02-19T04:30:38;95348.06;;;6.72;61.14
42247;BME280;27913;42.722;23.268;2023-02-19T04:33:04;95302.28;;;6.42;61.11
42247;BME280;27913;42.722;23.268;2023-02-19T04:35:29;95253.63;;;6.14;61.06
42247;BME280;27913;42.722;23.268;2023-02-19T04:37:55;95307.88;;;6.47;61.13
42247;BME280;27913;42.722;23.268;2023-02-19T04:40:20;95377.56;;;6.91;61.56
42247;BME280;27913;42.722;23.268;2023-02-19T04:42:46;95181.09;;;5.81;61.07
42247;BME280;27913;42.722;23.268;2023-02-19T04:45:12;95372.50;;;6.89;61.26
42247;BME280;27913;42.722;23.268;2023-02-19T04:47:37;95381.88;;;7.00;61.57
42247;BME280;27913;42.722;23.268;2023-02-19T04:50:03;95197.72;;;5.80;61.41
42247;BME280;27913;42.722;23.268;2023-02-19T04:52:28;95384.13;;;6.95;61.50
42247;BME280;27913;42.722;23.268;2023-02-19T04:54:57;95365.41;;;6.82;61.25
42247;BME280;27913;42.722;23.268;2023-02-19T04:57:22;95268.53;;;6.22;61.19
42247;BME280;27913;42.722;23.268;2023-02-19T04:59:48;95235.56;;;6.02;61.10
42247;BME280;27913;42.722;23.268;2023-02-19T05:02:13;95282.75;;;6.27;60.73
42247;BME280;27913;42.722;23.268;2023-02-19T05:04:39;95351.97;;;6.76;60.56
42247;BME280;27913;42.722;23.268;2023-02-19T05:07:05;95380.19;;;6.91;60.31
42247;BME280;27913;42.722;23.268;2023-02-19T05:09:31;95368.84;;;6.82;59.97
42247;BME280;27913;42.722;23.268;2023-02-19T05:11:56;95365.41;;;6.82;60.17
42247;BME280;27913;42.722;23.268;2023-02-19T05:14:21;95270.00;;;6.24;59.84
42247;BME280;27913;42.722;23.268;2023-02-19T05:16:47;95349.25;;;6.78;59.28
42247;BME280;27913;42.722;23.268;2023-02-19T05:19:12;95355.63;;;6.84;58.73
42247;BME280;27913;42.722;23.268;2023-02-19T05:21:38;95383.19;;;7.05;58.51
42247;BME280;27913;42.722;23.268;2023-02-19T05:24:05;95308.94;;;6.62;58.76
42247;BME280;27913;42.722;23.268;2023-02-19T05:26:31;95213.97;;;5.92;58.08
42247;BME280;27913;42.722;23.268;2023-02-19T05:28:56;95377.66;;;7.08;57.80
42247;BME280;27913;42.722;23.268;2023-02-19T05:31:22;95384.53;;;7.09;57.91
42247;BME280;27913;42.722;23.268;2023-02-19T05:33:48;95382.94;;;7.16;57.53
42247;BME280;27913;42.722;23.268;2023-02-19T05:36:16;95281.28;;;6.51;57.34
42247;BME280;27913;42.722;23.268;2023-02-19T05:38:42;95365.50;;;6.98;57.32
42247;BME280;27913;42.722;23.268;2023-02-19T05:41:19;95319.56;;;6.96;57.29
42247;BME280;27913;42.722;23.268;2023-02-19T05:43:46;95336.44;;;7.01;56.99
42247;BME280;27913;42.722;23.268;2023-02-19T05:46:14;95336.44;;;7.01;57.15
42247;BME280;27913;42.722;23.268;2023-02-19T05:48:41;95401.88;;;7.45;57.22
42247;BME280;27913;42.722;23.268;2023-02-19T05:51:11;95207.38;;;6.33;57.24
42247;BME280;27913;42.722;23.268;2023-02-19T05:53:37;95219.34;;;6.44;56.77
42247;BME280;27913;42.722;23.268;2023-02-19T05:56:03;95419.06;;;7.56;56.37
42247;BME280;27913;42.722;23.268;2023-02-19T05:58:29;95414.34;;;7.59;56.57
42247;BME280;27913;42.722;23.268;2023-02-19T06:00:55;95365.31;;;7.27;56.23
42247;BME280;27913;42.722;23.268;2023-02-19T06:03:21;95424.97;;;7.58;56.50
42247;BME280;27913;42.722;23.268;2023-02-19T06:05:47;95426.81;;;7.66;56.53
42247;BME280;27913;42.722;23.268;2023-02-19T06:08:14;95417.09;;;7.49;56.63
42247;BME280;27913;42.722;23.268;2023-02-19T06:10:42;95372.84;;;7.30;56.66
42247;BME280;27913;42.722;23.268;2023-02-19T06:13:08;95386.28;;;7.35;56.67
42247;BME280;27913;42.722;23.268;2023-02-19T06:15:34;95278.59;;;6.70;56.77
42247;BME280;27913;42.722;23.268;2023-02-19T06:18:00;95287.13;;;6.80;56.68
42247;BME280;27913;42.722;23.268;2023-02-19T06:20:26;95450.56;;;7.72;56.65
42247;BME280;27913;42.722;23.268;2023-02-19T06:22:51;95307.75;;;6.83;56.65
42247;BME280;27913;42.722;23.268;2023-02-19T06:25:18;95421.53;;;7.57;57.02
42247;BME280;27913;42.722;23.268;2023-02-19T06:27:44;95390.22;;;7.39;57.13
42247;BME280;27913;42.722;23.268;2023-02-19T06:30:10;95458.41;;;7.72;57.02
42247;BME280;27913;42.722;23.268;2023-02-19T06:32:35;95415.16;;;7.52;57.28
42247;BME280;27913;42.722;23.268;2023-02-19T06:35:02;95460.38;;;7.70;57.12
42247;BME280;27913;42.722;23.268;2023-02-19T06:37:27;95456.91;;;7.61;57.47
42247;BME280;27913;42.722;23.268;2023-02-19T06:39:53;95343.56;;;6.91;57.63
42247;BME280;27913;42.722;23.268;2023-02-19T06:42:19;95436.75;;;7.54;57.63
42247;BME280;27913;42.722;23.268;2023-02-19T06:44:44;95392.72;;;7.14;58.26
42247;BME280;27913;42.722;23.268;2023-02-19T06:47:10;95268.78;;;6.37;58.68
42247;BME280;27913;42.722;23.268;2023-02-19T06:49:35;95303.16;;;6.50;58.97
42247;BME280;27913;42.722;23.268;2023-02-19T06:52:03;95463.75;;;7.63;58.88
42247;BME280;27913;42.722;23.268;2023-02-19T06:54:28;95456.72;;;7.63;59.03
42247;BME280;27913;42.722;23.268;2023-02-19T06:56:54;95367.66;;;7.03;58.85
42247;BME280;27913;42.722;23.268;2023-02-19T06:59:21;95353.44;;;6.97;59.12
42247;BME280;27913;42.722;23.268;2023-02-19T07:01:46;95370.38;;;6.93;59.24
42247;BME280;27913;42.722;23.268;2023-02-19T07:04:12;95316.13;;;6.60;59.50
42247;BME280;27913;42.722;23.268;2023-02-19T07:06:37;95473.47;;;7.70;59.42
42247;BME280;27913;42.722;23.268;2023-02-19T07:09:04;95421.47;;;7.41;59.34
42247;BME280;27913;42.722;23.268;2023-02-19T07:11:31;95362.78;;;7.08;59.31
42247;BME280;27913;42.722;23.268;2023-02-19T07:13:59;95295.63;;;6.74;59.32
42247;BME280;27913;42.722;23.268;2023-02-19T07:16:25;95292.59;;;6.87;59.32
42247;BME280;27913;42.722;23.268;2023-02-19T07:18:51;95459.66;;;8.03;59.23
42247;BME280;27913;42.722;23.268;2023-02-19T07:21:17;95459.19;;;8.08;59.25
42247;BME280;27913;42.722;23.268;2023-02-19T07:23:44;95347.22;;;7.42;59.29
42247;BME280;27913;42.722;23.268;2023-02-19T07:26:15;95403.13;;;7.84;59.51
42247;BME280;27913;42.722;23.268;2023-02-19T07:28:42;95451.00;;;8.11;60.08
42247;BME280;27913;42.722;23.268;2023-02-19T07:31:08;95440.69;;;8.18;60.47
42247;BME280;27913;42.722;23.268;2023-02-19T07:33:34;95281.09;;;7.23;60.54
42247;BME280;27913;42.722;23.268;2023-02-19T07:35:59;95328.97;;;7.67;60.70
42247;BME280;27913;42.722;23.268;2023-02-19T07:38:26;95441.41;;;8.45;60.63
42247;BME280;27913;42.722;23.268;2023-02-19T07:40:59;95325.88;;;7.80;60.25
42247;BME280;27913;42.722;23.268;2023-02-19T07:43:27;95379.94;;;8.14;59.76
42247;BME280;27913;42.722;23.268;2023-02-19T07:45:53;95327.34;;;7.91;59.89
42247;BME280;27913;42.722;23.268;2023-02-19T07:48:19;95288.41;;;7.79;59.15
42247;BME280;27913;42.722;23.268;2023-02-19T07:53:17;95310.53;;;8.18;58.67
42247;BME280;27913;42.722;23.268;2023-02-19T07:55:46;95433.66;;;9.10;57.64
42247;BME280;27913;42.722;23.268;2023-02-19T07:58:11;95366.66;;;8.91;55.89
42247;BME280;27913;42.722;23.268;2023-02-19T08:00:37;95356.16;;;8.99;56.10
42247;BME280;27913;42.722;23.268;2023-02-19T08:03:03;95259.22;;;8.49;55.06
42247;BME280;27913;42.722;23.268;2023-02-19T08:05:36;95282.75;;;8.82;54.69
42247;BME280;27913;42.722;23.268;2023-02-19T08:08:04;95324.56;;;9.24;54.80
42247;BME280;27913;42.722;23.268;2023-02-19T08:10:30;95279.56;;;9.04;53.54
42247;BME280;27913;42.722;23.268;2023-02-19T08:13:15;95255.59;;;9.07;52.55
42247;BME280;27913;42.722;23.268;2023-02-19T08:15:44;95438.09;;;10.30;52.30
42247;BME280;27913;42.722;23.268;2023-02-19T08:18:10;95436.06;;;10.41;52.23
42247;BME280;27913;42.722;23.268;2023-02-19T08:20:36;95343.59;;;9.90;52.02
42247;BME280;27913;42.722;23.268;2023-02-19T08:23:03;95373.97;;;10.16;51.90
42247;BME280;27913;42.722;23.268;2023-02-19T08:25:28;95425.28;;;10.59;51.60
42247;BME280;27913;42.722;23.268;2023-02-19T08:27:54;95317.44;;;9.97;51.51
42247;BME280;27913;42.722;23.268;2023-02-19T08:30:20;95362.16;;;10.35;50.89
42247;BME280;27913;42.722;23.268;2023-02-19T08:32:45;95430.22;;;10.77;50.73
42247;BME280;27913;42.722;23.268;2023-02-19T08:35:11;95325.31;;;10.20;50.13
42247;BME280;27913;42.722;23.268;2023-02-19T08:37:37;95354.84;;;10.46;50.54
42247;BME280;27913;42.722;23.268;2023-02-19T08:40:02;95241.91;;;9.75;50.24
42247;BME280;27913;42.722;23.268;2023-02-19T08:42:28;95404.94;;;10.76;50.29
42247;BME280;27913;42.722;23.268;2023-02-19T08:44:54;95280.25;;;9.85;50.52
42247;BME280;27913;42.722;23.268;2023-02-19T08:47:19;95393.56;;;10.75;50.53
42247;BME280;27913;42.722;23.268;2023-02-19T08:49:45;95239.06;;;9.85;50.38
42247;BME280;27913;42.722;23.268;2023-02-19T08:52:10;95244.34;;;10.00;50.56
42247;BME280;27913;42.722;23.268;2023-02-19T08:54:36;95406.22;;;11.10;50.52
42247;BME280;27913;42.722;23.268;2023-02-19T08:57:01;95218.25;;;9.99;50.49
42247;BME280;27913;42.722;23.268;2023-02-19T08:59:29;95235.88;;;10.13;50.19
42247;BME280;27913;42.722;23.268;2023-02-19T09:01:55;95393.00;;;11.19;50.36
42247;BME280;27913;42.722;23.268;2023-02-19T09:04:20;95292.16;;;10.58;50.27
42247;BME280;27913;42.722;23.268;2023-02-19T09:06:46;95333.75;;;10.93;50.48
42247;BME280;27913;42.722;23.268;2023-02-19T09:09:11;95323.56;;;11.05;50.83
42247;BME280;27913;42.722;23.268;2023-02-19T09:11:40;95290.38;;;10.89;50.96
42247;BME280;27913;42.722;23.268;2023-02-19T09:14:05;95376.56;;;11.47;50.18
42247;BME280;27913;42.722;23.268;2023-02-19T09:16:32;95311.13;;;11.14;50.45
42247;BME280;27913;42.722;23.268;2023-02-19T09:18:58;95373.84;;;11.40;50.69
42247;BME280;27913;42.722;23.268;2023-02-19T09:21:24;95382.63;;;11.47;50.49
42247;BME280;27913;42.722;23.268;2023-02-19T09:23:49;95338.38;;;11.21;49.58
42247;BME280;27913;42.722;23.268;2023-02-19T09:26:15;95390.00;;;11.52;49.73
42247;BME280;27913;42.722;23.268;2023-02-19T09:28:41;95383.28;;;11.50;50.66
42247;BME280;27913;42.722;23.268;2023-02-19T09:31:09;95361.75;;;11.46;50.43
42247;BME280;27913;42.722;23.268;2023-02-19T09:33:35;95211.63;;;10.57;50.33
42247;BME280;27913;42.722;23.268;2023-02-19T09:36:01;95379.06;;;11.70;49.72
42247;BME280;27913;42.722;23.268;2023-02-19T09:38:27;95355.53;;;11.69;49.77
42247;BME280;27913;42.722;23.268;2023-02-19T09:40:56;95253.75;;;11.09;49.96
42247;BME280;27913;42.722;23.268;2023-02-19T09:43:25;95372.69;;;11.80;49.92
42247;BME280;27913;42.722;23.268;2023-02-19T09:46:08;95365.69;;;11.87;49.91
42247;BME280;27913;42.722;23.268;2023-02-19T09:48:36;95317.22;;;11.66;49.82
42247;BME280;27913;42.722;23.268;2023-02-19T09:51:02;95295.78;;;11.69;49.64
42247;BME280;27913;42.722;23.268;2023-02-19T09:53:35;95225.69;;;11.31;49.22
42247;BME280;27913;42.722;23.268;2023-02-19T09:56:04;95288.38;;;11.80;48.82
42247;BME280;27913;42.722;23.268;2023-02-19T09:58:33;95330.53;;;12.17;48.96
42247;BME280;27913;42.722;23.268;2023-02-19T10:01:01;95299.53;;;12.04;48.78
42247;BME280;27913;42.722;23.268;2023-02-19T10:03:36;95298.63;;;12.12;47.51
42247;BME280;27913;42.722;23.268;2023-02-19T10:06:07;95294.19;;;12.12;46.24
42247;BME280;27913;42.722;23.268;2023-02-19T10:08:36;95326.19;;;12.31;46.63
42247;BME280;27913;42.722;23.268;2023-02-19T10:11:03;95271.56;;;12.03;45.37
42247;BME280;27913;42.722;23.268;2023-02-19T10:13:35;95306.50;;;12.34;45.73
42247;BME280;27913;42.722;23.268;2023-02-19T10:16:04;95278.78;;;12.16;46.19
42247;BME280;27913;42.722;23.268;2023-02-19T10:18:39;95295.84;;;12.42;46.06
42247;BME280;27913;42.722;23.268;2023-02-19T10:21:08;95292.47;;;12.55;45.26
42247;BME280;27913;42.722;23.268;2023-02-19T10:23:38;95300.00;;;12.58;45.12
42247;BME280;27913;42.722;23.268;2023-02-19T10:26:05;95244.44;;;12.31;44.92
42247;BME280;27913;42.722;23.268;2023-02-19T10:28:33;95277.13;;;12.65;45.29
42247;BME280;27913;42.722;23.268;2023-02-19T10:31:01;95250.06;;;12.56;44.54
42247;BME280;27913;42.722;23.268;2023-02-19T10:33:27;95265.94;;;12.63;43.97
42247;BME280;27913;42.722;23.268;2023-02-19T10:36:05;95259.47;;;12.66;44.08
42247;BME280;27913;42.722;23.268;2023-02-19T10:38:34;95258.69;;;12.72;44.03
42247;BME280;27913;42.722;23.268;2023-02-19T10:41:10;95223.81;;;12.77;44.04
42247;BME280;27913;42.722;23.268;2023-02-19T10:43:37;95209.94;;;12.61;43.53
42247;BME280;27913;42.722;23.268;2023-02-19T10:46:16;95193.31;;;12.67;43.28
42247;BME280;27913;42.722;23.268;2023-02-19T10:48:52;95091.31;;;12.04;43.40
42247;BME280;27913;42.722;23.268;2023-02-19T10:51:20;95162.41;;;12.54;43.16
42247;BME280;27913;42.722;23.268;2023-02-19T10:54:19;95104.44;;;12.26;43.17
42247;BME280;27913;42.722;23.268;2023-02-19T10:56:45;95119.47;;;12.32;43.34
42247;BME280;27913;42.722;23.268;2023-02-19T11:02:02;95140.47;;;12.96;42.66
42247;BME280;27913;42.722;23.268;2023-02-19T11:04:40;95189.84;;;13.16;42.42
42247;BME280;27913;42.722;23.268;2023-02-19T11:07:11;95189.44;;;13.12;42.78
42247;BME280;27913;42.722;23.268;2023-02-19T11:09:41;95119.88;;;12.78;42.61
42247;BME280;27913;42.722;23.268;2023-02-19T11:12:10;95039.41;;;12.40;42.72
42247;BME280;27913;42.722;23.268;2023-02-19T11:15:12;95168.41;;;13.53;42.18
42247;BME280;27913;42.722;23.268;2023-02-19T11:18:28;95161.72;;;13.64;41.50
42247;BME280;27913;42.722;23.268;2023-02-19T11:23:53;94973.06;;;12.36;41.48
42247;BME280;27913;42.722;23.268;2023-02-19T11:26:27;95001.09;;;12.58;40.75
42247;BME280;27913;42.722;23.268;2023-02-19T11:28:58;95114.72;;;13.25;41.05
42247;BME280;27913;42.722;23.268;2023-02-19T11:31:33;95134.91;;;13.53;41.12
42247;BME280;27913;42.722;23.268;2023-02-19T11:37:10;95081.81;;;13.28;40.35
42247;BME280;27913;42.722;23.268;2023-02-19T11:39:41;95133.06;;;13.68;40.14
42247;BME280;27913;42.722;23.268;2023-02-19T11:42:28;95083.06;;;13.59;39.48
42247;BME280;27913;42.722;23.268;2023-02-19T11:45:28;95119.66;;;13.76;39.60
42247;BME280;27913;42.722;23.268;2023-02-19T11:51:32;95027.19;;;13.35;39.47
42247;BME280;27913;42.722;23.268;2023-02-19T11:56:35;95103.56;;;14.05;38.92
42247;BME280;27913;42.722;23.268;2023-02-19T11:59:30;94995.06;;;13.38;38.70
42247;BME280;27913;42.722;23.268;2023-02-19T12:02:30;95102.72;;;14.11;38.67
42247;BME280;27913;42.722;23.268;2023-02-19T12:08:14;95072.19;;;14.22;37.98
42247;BME280;27913;42.722;23.268;2023-02-19T12:11:09;95074.81;;;14.35;37.98
42247;BME280;27913;42.722;23.268;2023-02-19T12:36:35;95002.75;;;14.72;35.88
42247;BME280;27913;42.722;23.268;2023-02-19T12:42:19;95006.38;;;15.17;35.42
42247;BME280;27913;42.722;23.268;2023-02-19T12:44:53;94922.13;;;14.75;35.09
42247;BME280;27913;42.722;23.268;2023-02-19T12:47:25;94941.56;;;14.94;35.32
42247;BME280;27913;42.722;23.268;2023-02-19T12:50:04;94996.56;;;15.43;34.98
42247;BME280;27913;42.722;23.268;2023-02-19T12:52:36;94996.50;;;15.50;34.75
42247;BME280;27913;42.722;23.268;2023-02-19T12:55:28;94983.25;;;15.50;34.77
42247;BME280;27913;42.722;23.268;2023-02-19T12:57:57;94972.88;;;15.67;34.38
42247;BME280;27913;42.722;23.268;2023-02-19T13:00:42;94967.25;;;15.82;34.44
42247;BME280;27913;42.722;23.268;2023-02-19T13:03:21;94951.56;;;15.81;34.46
42247;BME280;27913;42.722;23.268;2023-02-19T13:08:41;94926.59;;;15.70;34.01
42247;BME280;27913;42.722;23.268;2023-02-19T13:11:16;94950.94;;;15.98;33.63
42247;BME280;27913;42.722;23.268;2023-02-19T13:16:13;94874.81;;;15.67;33.52
42247;BME280;27913;42.722;23.268;2023-02-19T13:18:49;94936.22;;;16.21;33.62
42247;BME280;27913;42.722;23.268;2023-02-19T13:21:16;94905.53;;;16.13;33.43
42247;BME280;27913;42.722;23.268;2023-02-19T13:24:10;94912.56;;;16.19;32.85
42247;BME280;27913;42.722;23.268;2023-02-19T13:27:09;94853.75;;;15.91;33.27
42247;BME280;27913;42.722;23.268;2023-02-19T13:33:20;94911.75;;;16.49;32.88
42247;BME280;27913;42.722;23.268;2023-02-19T13:38:32;94878.31;;;16.60;32.90
42247;BME280;27913;42.722;23.268;2023-02-19T13:40:58;94902.81;;;16.86;32.51
42247;BME280;27913;42.722;23.268;2023-02-19T13:43:28;94912.97;;;16.77;32.26
42247;BME280;27913;42.722;23.268;2023-02-19T13:46:03;94900.94;;;16.75;32.71
42247;BME280;27913;42.722;23.268;2023-02-19T13:48:32;94730.66;;;15.68;32.69
42247;BME280;27913;42.722;23.268;2023-02-19T13:53:57;94815.06;;;16.02;32.48
42247;BME280;27913;42.722;23.268;2023-02-19T13:56:43;94762.34;;;15.63;32.41
42247;BME280;27913;42.722;23.268;2023-02-19T13:59:35;94891.63;;;16.41;32.76
42247;BME280;27913;42.722;23.268;2023-02-19T14:28:29;94790.09;;;16.34;33.13
42247;BME280;27913;42.722;23.268;2023-02-19T14:33:51;94813.91;;;16.65;32.59
42247;BME280;27913;42.722;23.268;2023-02-19T14:41:27;94764.38;;;16.59;33.89
42247;BME280;27913;42.722;23.268;2023-02-19T14:43:56;94855.59;;;17.00;34.59
42247;BME280;27913;42.722;23.268;2023-02-19T14:46:48;94781.34;;;16.22;35.64
42247;BME280;27913;42.722;23.268;2023-02-19T14:51:47;94748.44;;;16.23;35.56
42247;BME280;27913;42.722;23.268;2023-02-19T14:54:18;94809.19;;;16.55;35.69
42247;BME280;27913;42.722;23.268;2023-02-19T14:56:47;94829.72;;;16.60;35.80
42247;BME280;27913;42.722;23.268;2023-02-19T14:59:27;94811.25;;;16.41;36.28
42247;BME280;27913;42.722;23.268;2023-02-19T15:02:01;94809.94;;;16.32;36.41
42247;BME280;27913;42.722;23.268;2023-02-19T15:04:33;94822.28;;;16.26;36.68
42247;BME280;27913;42.722;23.268;2023-02-19T15:07:01;94784.22;;;15.89;36.91
42247;BME280;27913;42.722;23.268;2023-02-19T15:09:31;94803.94;;;15.93;37.07
42247;BME280;27913;42.722;23.268;2023-02-19T15:11:58;94736.22;;;15.48;37.14
42247;BME280;27913;42.722;23.268;2023-02-19T15:14:24;94806.47;;;15.88;37.13
42247;BME280;27913;42.722;23.268;2023-02-19T15:16:58;94787.47;;;15.73;37.51
42247;BME280;27913;42.722;23.268;2023-02-19T15:19:25;94842.03;;;15.99;37.54
42247;BME280;27913;42.722;23.268;2023-02-19T15:21:52;94817.50;;;15.85;37.72
42247;BME280;27913;42.722;23.268;2023-02-19T15:24:19;94846.84;;;15.72;38.44